sensor_id;sensor_type;location;lat;lon;timestamp;pressure;altitude;pressure_sealevel;temperature;humidity
20003;BME280;10162;41.600;23.806;2023-11-22T00:02:43;94650.19;;;5.72;100.00
20003;BME280;10162;41.600;23.806;2023-11-22T00:25:39;94658.13;;;5.93;100.00
20003;BME280;10162;41.600;23.806;2023-11-22T00:28:05;94672.47;;;5.81;100.00
20003;BME280;10162;41.600;23.806;2023-11-22T00:30:32;94650.91;;;5.66;100.00
20003;BME280;10162;41.600;23.806;2023-11-22T00:33:04;94671.44;;;5.53;100.00
20003;BME280;10162;41.600;23.806;2023-11-22T00:36:21;94688.38;;;5.63;100.00
20003;BME280;10162;41.600;23.806;2023-11-22T00:50:24;94621.28;;;5.60;100.00
20003;BME280;10162;41.600;23.806;2023-11-22T00:52:50;94632.91;;;5.64;100.00
20003;BME280;10162;41.600;23.806;2023-11-22T00:55:43;94635.47;;;5.87;100.00
20003;BME280;10162;41.600;23.806;2023-11-22T00:58:09;94617.47;;;5.71;100.00
20003;BME280;10162;41.600;23.806;2023-11-22T01:00:35;94656.19;;;5.72;100.00
20003;BME280;10162;41.600;23.806;2023-11-22T01:03:02;94627.56;;;5.51;100.00
20003;BME280;10162;41.600;23.806;2023-11-22T01:05:30;94639.81;;;5.57;100.00
20003;BME280;10162;41.600;23.806;2023-11-22T01:07:59;94628.97;;;5.16;100.00
20003;BME280;10162;41.600;23.806;2023-11-22T01:10:33;94623.84;;;5.08;100.00
20003;BME280;10162;41.600;23.806;2023-11-22T01:16:06;94637.88;;;4.91;100.00
20003;BME280;10162;41.600;23.806;2023-11-22T01:18:57;94629.25;;;5.21;100.00
20003;BME280;10162;41.600;23.806;2023-11-22T01:21:29;94645.47;;;5.38;100.00
20003;BME280;10162;41.600;23.806;2023-11-22T01:28:01;94608.25;;;5.16;100.00
20003;BME280;10162;41.600;23.806;2023-11-22T01:30:33;94625.66;;;5.45;100.00
20003;BME280;10162;41.600;23.806;2023-11-22T01:32:59;94598.75;;;5.46;100.00
20003;BME280;10162;41.600;23.806;2023-11-22T01:51:17;94621.34;;;5.37;100.00
20003;BME280;10162;41.600;23.806;2023-11-22T01:57:56;94612.81;;;5.52;100.00
20003;BME280;10162;41.600;23.806;2023-11-22T02:11:35;94643.22;;;5.58;100.00
20003;BME280;10162;41.600;23.806;2023-11-22T02:18:32;94622.38;;;6.03;100.00
20003;BME280;10162;41.600;23.806;2023-11-22T02:20:57;94607.09;;;5.71;100.00
20003;BME280;10162;41.600;23.806;2023-11-22T02:27:18;94624.13;;;5.88;100.00
20003;BME280;10162;41.600;23.806;2023-11-22T02:30:23;94636.84;;;5.98;100.00
20003;BME280;10162;41.600;23.806;2023-11-22T02:32:46;94604.66;;;5.92;100.00
20003;BME280;10162;41.600;23.806;2023-11-22T02:42:30;94577.00;;;6.50;100.00
20003;BME280;10162;41.600;23.806;2023-11-22T02:48:51;94593.78;;;6.33;100.00
20003;BME280;10162;41.600;23.806;2023-11-22T02:51:17;94602.19;;;6.35;100.00
20003;BME280;10162;41.600;23.806;2023-11-22T02:53:48;94611.16;;;6.17;100.00
20003;BME280;10162;41.600;23.806;2023-11-22T02:56:15;94616.09;;;6.12;100.00
20003;BME280;10162;41.600;23.806;2023-11-22T02:58:41;94637.47;;;6.14;100.00
20003;BME280;10162;41.600;23.806;2023-11-22T03:01:07;94641.31;;;6.18;100.00
20003;BME280;10162;41.600;23.806;2023-11-22T03:08:01;94665.47;;;5.90;100.00
20003;BME280;10162;41.600;23.806;2023-11-22T03:23:09;94596.56;;;5.87;100.00
20003;BME280;10162;41.600;23.806;2023-11-22T03:25:54;94607.50;;;6.12;100.00
20003;BME280;10162;41.600;23.806;2023-11-22T03:28:28;94605.06;;;6.10;100.00
20003;BME280;10162;41.600;23.806;2023-11-22T03:38:30;94627.25;;;6.42;100.00
20003;BME280;10162;41.600;23.806;2023-11-22T03:40:56;94612.66;;;6.41;100.00
20003;BME280;10162;41.600;23.806;2023-11-22T03:47:19;94629.13;;;6.34;100.00
20003;BME280;10162;41.600;23.806;2023-11-22T03:50:07;94633.00;;;6.38;100.00
20003;BME280;10162;41.600;23.806;2023-11-22T03:52:33;94610.50;;;6.45;100.00
20003;BME280;10162;41.600;23.806;2023-11-22T03:58:54;94646.59;;;6.54;100.00
20003;BME280;10162;41.600;23.806;2023-11-22T04:01:20;94661.22;;;6.62;100.00
20003;BME280;10162;41.600;23.806;2023-11-22T04:07:40;94671.63;;;6.62;100.00
20003;BME280;10162;41.600;23.806;2023-11-22T04:10:06;94669.03;;;6.62;100.00
20003;BME280;10162;41.600;23.806;2023-11-22T04:12:31;94656.38;;;6.38;100.00
20003;BME280;10162;41.600;23.806;2023-11-22T04:18:51;94664.75;;;6.54;100.00
20003;BME280;10162;41.600;23.806;2023-11-22T04:21:17;94665.34;;;6.71;100.00
20003;BME280;10162;41.600;23.806;2023-11-22T04:27:37;94650.97;;;6.54;100.00
20003;BME280;10162;41.600;23.806;2023-11-22T04:30:05;94654.88;;;6.50;100.00
20003;BME280;10162;41.600;23.806;2023-11-22T04:32:36;94665.00;;;6.59;100.00
20003;BME280;10162;41.600;23.806;2023-11-22T04:38:57;94655.16;;;6.70;100.00
20003;BME280;10162;41.600;23.806;2023-11-22T04:41:23;94641.19;;;6.71;100.00
20003;BME280;10162;41.600;23.806;2023-11-22T04:47:13;94670.50;;;6.86;100.00
20003;BME280;10162;41.600;23.806;2023-11-22T04:49:39;94644.50;;;6.64;100.00
20003;BME280;10162;41.600;23.806;2023-11-22T04:52:06;94647.44;;;6.76;100.00
20003;BME280;10162;41.600;23.806;2023-11-22T04:58:26;94635.53;;;6.67;100.00
20003;BME280;10162;41.600;23.806;2023-11-22T05:00:52;94642.00;;;6.56;100.00
20003;BME280;10162;41.600;23.806;2023-11-22T05:03:17;94651.13;;;6.52;100.00
20003;BME280;10162;41.600;23.806;2023-11-22T05:05:43;94633.97;;;6.37;100.00
20003;BME280;10162;41.600;23.806;2023-11-22T05:08:09;94670.56;;;6.56;100.00
20003;BME280;10162;41.600;23.806;2023-11-22T05:10:34;94645.78;;;6.39;100.00
20003;BME280;10162;41.600;23.806;2023-11-22T05:13:00;94667.34;;;6.54;100.00
20003;BME280;10162;41.600;23.806;2023-11-22T05:19:20;94661.63;;;6.30;100.00
20003;BME280;10162;41.600;23.806;2023-11-22T05:21:47;94691.44;;;6.48;100.00
20003;BME280;10162;41.600;23.806;2023-11-22T05:28:06;94689.38;;;6.58;100.00
20003;BME280;10162;41.600;23.806;2023-11-22T05:30:33;94698.41;;;6.77;100.00
20003;BME280;10162;41.600;23.806;2023-11-22T05:33:02;94684.53;;;6.55;100.00
20003;BME280;10162;41.600;23.806;2023-11-22T05:39:23;94691.59;;;6.61;100.00
20003;BME280;10162;41.600;23.806;2023-11-22T05:41:51;94692.22;;;6.63;100.00
20003;BME280;10162;41.600;23.806;2023-11-22T05:48:15;94718.63;;;6.82;100.00
20003;BME280;10162;41.600;23.806;2023-11-22T05:50:46;94703.41;;;6.79;100.00
20003;BME280;10162;41.600;23.806;2023-11-22T05:57:07;94718.03;;;6.65;100.00
20003;BME280;10162;41.600;23.806;2023-11-22T05:59:33;94741.13;;;6.75;100.00
20003;BME280;10162;41.600;23.806;2023-11-22T06:01:59;94731.53;;;6.75;100.00
20003;BME280;10162;41.600;23.806;2023-11-22T06:04:36;94768.31;;;7.08;100.00
20003;BME280;10162;41.600;23.806;2023-11-22T06:07:02;94704.13;;;6.73;100.00
20003;BME280;10162;41.600;23.806;2023-11-22T06:09:31;94737.97;;;6.94;100.00
20003;BME280;10162;41.600;23.806;2023-11-22T06:12:03;94735.25;;;7.02;100.00
20003;BME280;10162;41.600;23.806;2023-11-22T06:14:32;94735.00;;;6.97;100.00
20003;BME280;10162;41.600;23.806;2023-11-22T06:16:58;94718.72;;;6.74;100.00
20003;BME280;10162;41.600;23.806;2023-11-22T06:19:24;94747.44;;;7.01;100.00
20003;BME280;10162;41.600;23.806;2023-11-22T06:21:50;94732.41;;;6.97;100.00
20003;BME280;10162;41.600;23.806;2023-11-22T06:24:44;94764.16;;;7.28;100.00
20003;BME280;10162;41.600;23.806;2023-11-22T06:27:14;94749.22;;;7.16;100.00
20003;BME280;10162;41.600;23.806;2023-11-22T06:29:41;94768.94;;;7.10;100.00
20003;BME280;10162;41.600;23.806;2023-11-22T06:32:09;94771.03;;;7.00;100.00
20003;BME280;10162;41.600;23.806;2023-11-22T06:37:40;94757.59;;;6.67;100.00
20003;BME280;10162;41.600;23.806;2023-11-22T06:40:07;94800.31;;;6.79;100.00
20003;BME280;10162;41.600;23.806;2023-11-22T06:42:34;94777.06;;;6.71;100.00
20003;BME280;10162;41.600;23.806;2023-11-22T06:48:11;94803.19;;;6.84;100.00
20003;BME280;10162;41.600;23.806;2023-11-22T06:50:40;94797.81;;;6.86;100.00
20003;BME280;10162;41.600;23.806;2023-11-22T06:53:13;94781.41;;;6.85;100.00
20003;BME280;10162;41.600;23.806;2023-11-22T06:55:45;94808.41;;;6.99;100.00
20003;BME280;10162;41.600;23.806;2023-11-22T06:58:10;94788.50;;;7.06;100.00
20003;BME280;10162;41.600;23.806;2023-11-22T07:00:43;94776.03;;;7.01;100.00
20003;BME280;10162;41.600;23.806;2023-11-22T07:06:03;94816.63;;;7.02;100.00
20003;BME280;10162;41.600;23.806;2023-11-22T07:08:30;94807.94;;;7.10;100.00
20003;BME280;10162;41.600;23.806;2023-11-22T07:10:57;94799.59;;;7.15;100.00
20003;BME280;10162;41.600;23.806;2023-11-22T07:16:47;94766.88;;;7.20;100.00
20003;BME280;10162;41.600;23.806;2023-11-22T07:19:14;94789.69;;;7.39;100.00
20003;BME280;10162;41.600;23.806;2023-11-22T07:21:39;94795.81;;;7.53;100.00
20003;BME280;10162;41.600;23.806;2023-11-22T07:24:22;94779.97;;;7.48;100.00
20003;BME280;10162;41.600;23.806;2023-11-22T07:26:49;94765.56;;;7.45;100.00
20003;BME280;10162;41.600;23.806;2023-11-22T07:29:15;94787.13;;;7.61;100.00
20003;BME280;10162;41.600;23.806;2023-11-22T07:31:41;94803.16;;;7.64;100.00
20003;BME280;10162;41.600;23.806;2023-11-22T07:37:15;94797.53;;;7.61;100.00
20003;BME280;10162;41.600;23.806;2023-11-22T07:39:46;94801.25;;;7.73;100.00
20003;BME280;10162;41.600;23.806;2023-11-22T07:42:13;94797.09;;;7.78;100.00
20003;BME280;10162;41.600;23.806;2023-11-22T07:44:49;94824.59;;;7.87;100.00
20003;BME280;10162;41.600;23.806;2023-11-22T07:47:22;94824.03;;;7.92;100.00
20003;BME280;10162;41.600;23.806;2023-11-22T07:49:50;94791.88;;;7.57;100.00
20003;BME280;10162;41.600;23.806;2023-11-22T07:52:17;94828.25;;;7.93;100.00
20003;BME280;10162;41.600;23.806;2023-11-22T07:58:13;94799.84;;;7.92;100.00
20003;BME280;10162;41.600;23.806;2023-11-22T08:00:40;94796.28;;;7.99;100.00
20003;BME280;10162;41.600;23.806;2023-11-22T08:05:55;94785.50;;;8.02;100.00
20003;BME280;10162;41.600;23.806;2023-11-22T08:08:22;94811.88;;;8.20;100.00
20003;BME280;10162;41.600;23.806;2023-11-22T08:10:48;94795.78;;;8.10;100.00
20003;BME280;10162;41.600;23.806;2023-11-22T08:13:15;94805.84;;;8.13;100.00
20003;BME280;10162;41.600;23.806;2023-11-22T08:15:41;94778.06;;;7.99;100.00
20003;BME280;10162;41.600;23.806;2023-11-22T08:18:07;94825.78;;;8.27;100.00
20003;BME280;10162;41.600;23.806;2023-11-22T08:20:33;94778.38;;;8.11;100.00
20003;BME280;10162;41.600;23.806;2023-11-22T08:22:59;94802.84;;;8.38;100.00
20003;BME280;10162;41.600;23.806;2023-11-22T08:25:46;94817.00;;;8.56;100.00
20003;BME280;10162;41.600;23.806;2023-11-22T08:28:12;94802.72;;;8.46;100.00
20003;BME280;10162;41.600;23.806;2023-11-22T08:30:38;94791.66;;;8.37;100.00
20003;BME280;10162;41.600;23.806;2023-11-22T08:33:06;94806.34;;;8.51;100.00
20003;BME280;10162;41.600;23.806;2023-11-22T08:35:32;94806.47;;;8.64;100.00
20003;BME280;10162;41.600;23.806;2023-11-22T08:37:58;94800.81;;;8.61;100.00
20003;BME280;10162;41.600;23.806;2023-11-22T08:40:24;94819.94;;;8.75;100.00
20003;BME280;10162;41.600;23.806;2023-11-22T08:42:53;94798.69;;;8.71;100.00
20003;BME280;10162;41.600;23.806;2023-11-22T08:45:34;94826.03;;;8.82;100.00
20003;BME280;10162;41.600;23.806;2023-11-22T08:48:00;94821.16;;;8.79;100.00
20003;BME280;10162;41.600;23.806;2023-11-22T08:50:26;94800.03;;;8.67;100.00
20003;BME280;10162;41.600;23.806;2023-11-22T08:52:52;94797.03;;;8.63;100.00
20003;BME280;10162;41.600;23.806;2023-11-22T08:55:19;94782.78;;;8.59;100.00
20003;BME280;10162;41.600;23.806;2023-11-22T08:57:49;94815.00;;;8.86;100.00
20003;BME280;10162;41.600;23.806;2023-11-22T09:00:18;94817.22;;;8.83;100.00
20003;BME280;10162;41.600;23.806;2023-11-22T09:02:48;94794.66;;;8.68;100.00
20003;BME280;10162;41.600;23.806;2023-11-22T09:05:19;94823.56;;;8.74;100.00
20003;BME280;10162;41.600;23.806;2023-11-22T09:07:47;94837.84;;;8.84;100.00
20003;BME280;10162;41.600;23.806;2023-11-22T09:10:13;94828.53;;;8.68;100.00
20003;BME280;10162;41.600;23.806;2023-11-22T09:12:41;94818.50;;;8.65;100.00
20003;BME280;10162;41.600;23.806;2023-11-22T09:15:28;94812.75;;;8.77;100.00
20003;BME280;10162;41.600;23.806;2023-11-22T09:17:55;94805.72;;;8.77;100.00
20003;BME280;10162;41.600;23.806;2023-11-22T09:20:21;94805.75;;;8.84;100.00
20003;BME280;10162;41.600;23.806;2023-11-22T09:22:52;94822.66;;;8.94;100.00
20003;BME280;10162;41.600;23.806;2023-11-22T09:25:53;94822.44;;;8.89;100.00
20003;BME280;10162;41.600;23.806;2023-11-22T09:28:19;94822.25;;;8.91;100.00
20003;BME280;10162;41.600;23.806;2023-11-22T09:30:45;94821.78;;;8.81;100.00
20003;BME280;10162;41.600;23.806;2023-11-22T09:33:44;94833.63;;;8.83;100.00
20003;BME280;10162;41.600;23.806;2023-11-22T09:36:26;94811.19;;;8.82;100.00
20003;BME280;10162;41.600;23.806;2023-11-22T09:38:53;94814.84;;;8.94;100.00
20003;BME280;10162;41.600;23.806;2023-11-22T09:41:19;94806.09;;;9.08;100.00
20003;BME280;10162;41.600;23.806;2023-11-22T09:44:07;94816.94;;;9.53;100.00
20003;BME280;10162;41.600;23.806;2023-11-22T09:46:36;94800.44;;;9.39;100.00
20003;BME280;10162;41.600;23.806;2023-11-22T09:49:04;94798.34;;;9.22;100.00
20003;BME280;10162;41.600;23.806;2023-11-22T09:51:37;94784.50;;;9.21;100.00
20003;BME280;10162;41.600;23.806;2023-11-22T09:57:15;94798.13;;;9.77;100.00
20003;BME280;10162;41.600;23.806;2023-11-22T09:59:43;94780.06;;;9.82;100.00
20003;BME280;10162;41.600;23.806;2023-11-22T10:02:09;94777.06;;;9.79;100.00
20003;BME280;10162;41.600;23.806;2023-11-22T10:07:26;94793.34;;;9.87;100.00
20003;BME280;10162;41.600;23.806;2023-11-22T10:09:52;94790.88;;;9.66;100.00
20003;BME280;10162;41.600;23.806;2023-11-22T10:12:21;94775.56;;;9.43;100.00
20003;BME280;10162;41.600;23.806;2023-11-22T10:17:57;94789.84;;;9.54;100.00
20003;BME280;10162;41.600;23.806;2023-11-22T10:20:25;94794.91;;;9.62;100.00
20003;BME280;10162;41.600;23.806;2023-11-22T10:23:00;94791.72;;;9.73;100.00
20003;BME280;10162;41.600;23.806;2023-11-22T10:26:03;94800.13;;;9.62;100.00
20003;BME280;10162;41.600;23.806;2023-11-22T10:28:32;94783.00;;;9.53;100.00
20003;BME280;10162;41.600;23.806;2023-11-22T10:31:19;94799.09;;;9.63;100.00
20003;BME280;10162;41.600;23.806;2023-11-22T10:33:46;94782.38;;;9.38;100.00
20003;BME280;10162;41.600;23.806;2023-11-22T10:36:13;94771.50;;;9.34;100.00
20003;BME280;10162;41.600;23.806;2023-11-22T10:38:41;94787.84;;;9.56;100.00
20003;BME280;10162;41.600;23.806;2023-11-22T10:41:08;94782.00;;;9.47;100.00
20003;BME280;10162;41.600;23.806;2023-11-22T10:46:27;94782.47;;;9.77;100.00
20003;BME280;10162;41.600;23.806;2023-11-22T10:48:55;94801.38;;;9.99;100.00
20003;BME280;10162;41.600;23.806;2023-11-22T10:51:23;94784.72;;;10.00;100.00
20003;BME280;10162;41.600;23.806;2023-11-22T10:54:14;94794.56;;;9.98;100.00
20003;BME280;10162;41.600;23.806;2023-11-22T10:56:46;94783.91;;;9.93;100.00
20003;BME280;10162;41.600;23.806;2023-11-22T10:59:19;94757.38;;;9.76;100.00
20003;BME280;10162;41.600;23.806;2023-11-22T11:01:47;94770.22;;;9.78;100.00
20003;BME280;10162;41.600;23.806;2023-11-22T11:04:39;94798.97;;;10.04;100.00
20003;BME280;10162;41.600;23.806;2023-11-22T11:07:12;94774.47;;;9.99;100.00
20003;BME280;10162;41.600;23.806;2023-11-22T11:09:42;94780.91;;;10.09;100.00
20003;BME280;10162;41.600;23.806;2023-11-22T11:12:10;94776.34;;;10.18;100.00
20003;BME280;10162;41.600;23.806;2023-11-22T11:17:44;94791.53;;;10.14;100.00
20003;BME280;10162;41.600;23.806;2023-11-22T11:20:16;94758.22;;;9.97;100.00
20003;BME280;10162;41.600;23.806;2023-11-22T11:22:43;94763.63;;;10.15;100.00
20003;BME280;10162;41.600;23.806;2023-11-22T11:25:42;94775.31;;;10.52;100.00
20003;BME280;10162;41.600;23.806;2023-11-22T11:28:11;94775.13;;;10.40;100.00
20003;BME280;10162;41.600;23.806;2023-11-22T11:33:09;94748.00;;;10.28;100.00
20003;BME280;10162;41.600;23.806;2023-11-22T11:35:56;94765.25;;;10.62;100.00
20003;BME280;10162;41.600;23.806;2023-11-22T11:38:30;94743.16;;;10.38;100.00
20003;BME280;10162;41.600;23.806;2023-11-22T11:41:06;94773.91;;;10.43;100.00
20003;BME280;10162;41.600;23.806;2023-11-22T11:47:28;94757.22;;;10.37;100.00
20003;BME280;10162;41.600;23.806;2023-11-22T11:49:55;94760.63;;;10.44;100.00
20003;BME280;10162;41.600;23.806;2023-11-22T11:52:21;94746.16;;;10.48;100.00
20003;BME280;10162;41.600;23.806;2023-11-22T11:57:57;94767.66;;;10.70;100.00
20003;BME280;10162;41.600;23.806;2023-11-22T12:00:29;94743.34;;;10.56;100.00
20003;BME280;10162;41.600;23.806;2023-11-22T12:02:55;94753.16;;;10.67;100.00
20003;BME280;10162;41.600;23.806;2023-11-22T12:08:37;94776.47;;;11.40;100.00
20003;BME280;10162;41.600;23.806;2023-11-22T12:11:04;94760.66;;;11.22;100.00
20003;BME280;10162;41.600;23.806;2023-11-22T12:14:01;94784.06;;;11.61;100.00
20003;BME280;10162;41.600;23.806;2023-11-22T12:16:29;94744.41;;;11.51;100.00
20003;BME280;10162;41.600;23.806;2023-11-22T12:18:56;94761.47;;;11.67;100.00
20003;BME280;10162;41.600;23.806;2023-11-22T12:21:24;94767.22;;;11.44;100.00
20003;BME280;10162;41.600;23.806;2023-11-22T12:23:57;94757.59;;;11.38;100.00
20003;BME280;10162;41.600;23.806;2023-11-22T12:26:22;94771.53;;;11.63;100.00
20003;BME280;10162;41.600;23.806;2023-11-22T12:28:49;94785.25;;;11.58;100.00
20003;BME280;10162;41.600;23.806;2023-11-22T12:31:16;94756.00;;;11.30;100.00
20003;BME280;10162;41.600;23.806;2023-11-22T12:37:36;94759.06;;;11.65;100.00
20003;BME280;10162;41.600;23.806;2023-11-22T12:40:09;94783.34;;;11.34;100.00
20003;BME280;10162;41.600;23.806;2023-11-22T12:42:47;94769.91;;;11.24;100.00
20003;BME280;10162;41.600;23.806;2023-11-22T12:45:24;94778.75;;;11.23;100.00
20003;BME280;10162;41.600;23.806;2023-11-22T12:47:51;94776.94;;;11.24;100.00
20003;BME280;10162;41.600;23.806;2023-11-22T12:50:36;94795.59;;;11.40;100.00
20003;BME280;10162;41.600;23.806;2023-11-22T12:53:12;94762.31;;;11.09;100.00
20003;BME280;10162;41.600;23.806;2023-11-22T12:55:46;94794.03;;;11.33;100.00
20003;BME280;10162;41.600;23.806;2023-11-22T12:58:18;94789.44;;;11.22;100.00
20003;BME280;10162;41.600;23.806;2023-11-22T13:00:45;94782.03;;;11.12;100.00
20003;BME280;10162;41.600;23.806;2023-11-22T13:03:12;94802.28;;;11.30;100.00
20003;BME280;10162;41.600;23.806;2023-11-22T13:05:45;94766.66;;;11.29;100.00
20003;BME280;10162;41.600;23.806;2023-11-22T13:08:12;94775.66;;;11.39;100.00
20003;BME280;10162;41.600;23.806;2023-11-22T13:10:45;94792.41;;;11.38;100.00
20003;BME280;10162;41.600;23.806;2023-11-22T13:13:40;94796.50;;;11.14;100.00
20003;BME280;10162;41.600;23.806;2023-11-22T13:16:07;94789.22;;;11.23;100.00
20003;BME280;10162;41.600;23.806;2023-11-22T13:18:33;94785.47;;;10.99;100.00
20003;BME280;10162;41.600;23.806;2023-11-22T13:20:59;94780.00;;;11.14;100.00
20003;BME280;10162;41.600;23.806;2023-11-22T13:23:25;94805.31;;;11.33;100.00
20003;BME280;10162;41.600;23.806;2023-11-22T13:25:52;94758.69;;;11.10;100.00
20003;BME280;10162;41.600;23.806;2023-11-22T13:28:17;94790.28;;;11.60;100.00
20003;BME280;10162;41.600;23.806;2023-11-22T13:30:43;94751.59;;;11.62;100.00
20003;BME280;10162;41.600;23.806;2023-11-22T13:33:09;94776.72;;;11.83;100.00
20003;BME280;10162;41.600;23.806;2023-11-22T13:35:37;94767.72;;;11.66;100.00
20003;BME280;10162;41.600;23.806;2023-11-22T13:38:06;94770.00;;;11.49;100.00
20003;BME280;10162;41.600;23.806;2023-11-22T13:40:36;94768.78;;;11.51;100.00
20003;BME280;10162;41.600;23.806;2023-11-22T13:43:04;94787.31;;;11.50;100.00
20003;BME280;10162;41.600;23.806;2023-11-22T13:45:34;94774.09;;;11.38;100.00
20003;BME280;10162;41.600;23.806;2023-11-22T13:48:00;94785.22;;;11.27;100.00
20003;BME280;10162;41.600;23.806;2023-11-22T13:50:30;94780.34;;;11.31;100.00
20003;BME280;10162;41.600;23.806;2023-11-22T13:52:56;94801.41;;;11.55;100.00
20003;BME280;10162;41.600;23.806;2023-11-22T13:55:25;94821.69;;;11.67;100.00
20003;BME280;10162;41.600;23.806;2023-11-22T13:57:51;94814.75;;;11.85;100.00
20003;BME280;10162;41.600;23.806;2023-11-22T14:00:18;94835.53;;;11.80;100.00
20003;BME280;10162;41.600;23.806;2023-11-22T14:02:56;94805.69;;;11.43;100.00
20003;BME280;10162;41.600;23.806;2023-11-22T14:05:25;94797.31;;;11.22;100.00
20003;BME280;10162;41.600;23.806;2023-11-22T14:07:52;94845.56;;;11.39;100.00
20003;BME280;10162;41.600;23.806;2023-11-22T14:10:18;94809.19;;;11.11;100.00
20003;BME280;10162;41.600;23.806;2023-11-22T14:12:45;94845.81;;;11.17;100.00
20003;BME280;10162;41.600;23.806;2023-11-22T14:15:41;94838.56;;;11.06;100.00
20003;BME280;10162;41.600;23.806;2023-11-22T14:18:07;94820.31;;;10.87;100.00
20003;BME280;10162;41.600;23.806;2023-11-22T14:20:32;94804.84;;;10.65;100.00
20003;BME280;10162;41.600;23.806;2023-11-22T14:23:00;94837.41;;;10.89;100.00
20003;BME280;10162;41.600;23.806;2023-11-22T14:29:19;94831.78;;;10.72;100.00
20003;BME280;10162;41.600;23.806;2023-11-22T14:31:45;94843.84;;;10.80;100.00
20003;BME280;10162;41.600;23.806;2023-11-22T14:37:18;94823.16;;;10.39;100.00
20003;BME280;10162;41.600;23.806;2023-11-22T14:39:45;94839.25;;;10.36;100.00
20003;BME280;10162;41.600;23.806;2023-11-22T14:42:10;94812.47;;;10.08;100.00
20003;BME280;10162;41.600;23.806;2023-11-22T14:47:38;94834.50;;;9.92;100.00
20003;BME280;10162;41.600;23.806;2023-11-22T14:50:06;94847.59;;;10.05;100.00
20003;BME280;10162;41.600;23.806;2023-11-22T14:52:58;94860.25;;;10.02;100.00
20003;BME280;10162;41.600;23.806;2023-11-22T14:55:31;94858.59;;;9.87;100.00
20003;BME280;10162;41.600;23.806;2023-11-22T14:57:58;94842.50;;;9.71;100.00
20003;BME280;10162;41.600;23.806;2023-11-22T15:00:25;94832.00;;;9.58;100.00
20003;BME280;10162;41.600;23.806;2023-11-22T15:02:50;94829.72;;;9.41;100.00
20003;BME280;10162;41.600;23.806;2023-11-22T15:08:41;94841.31;;;9.26;100.00
20003;BME280;10162;41.600;23.806;2023-11-22T15:11:07;94851.16;;;9.30;100.00
20003;BME280;10162;41.600;23.806;2023-11-22T15:13:54;94876.66;;;9.35;100.00
20003;BME280;10162;41.600;23.806;2023-11-22T15:16:20;94862.63;;;9.36;100.00
20003;BME280;10162;41.600;23.806;2023-11-22T15:18:45;94875.91;;;9.47;100.00
20003;BME280;10162;41.600;23.806;2023-11-22T15:21:11;94884.16;;;9.44;100.00
20003;BME280;10162;41.600;23.806;2023-11-22T15:23:51;94871.66;;;9.40;100.00
20003;BME280;10162;41.600;23.806;2023-11-22T15:26:17;94900.34;;;9.33;100.00
20003;BME280;10162;41.600;23.806;2023-11-22T15:28:43;94900.50;;;9.25;100.00
20003;BME280;10162;41.600;23.806;2023-11-22T15:31:15;94912.34;;;9.28;100.00
20003;BME280;10162;41.600;23.806;2023-11-22T15:37:14;94951.19;;;9.44;100.00
20003;BME280;10162;41.600;23.806;2023-11-22T15:39:45;94927.75;;;9.23;100.00
20003;BME280;10162;41.600;23.806;2023-11-22T15:42:22;94946.53;;;9.39;100.00
20003;BME280;10162;41.600;23.806;2023-11-22T15:45:09;94942.31;;;9.38;100.00
20003;BME280;10162;41.600;23.806;2023-11-22T15:47:35;94916.09;;;9.19;100.00
20003;BME280;10162;41.600;23.806;2023-11-22T15:50:02;94930.78;;;9.26;100.00
20003;BME280;10162;41.600;23.806;2023-11-22T15:52:31;94923.59;;;9.28;100.00
20003;BME280;10162;41.600;23.806;2023-11-22T15:58:52;94967.31;;;9.26;100.00
20003;BME280;10162;41.600;23.806;2023-11-22T16:01:19;94955.69;;;9.29;100.00
20003;BME280;10162;41.600;23.806;2023-11-22T16:07:39;94958.63;;;9.19;100.00
20003;BME280;10162;41.600;23.806;2023-11-22T16:10:06;94971.31;;;9.29;100.00
20003;BME280;10162;41.600;23.806;2023-11-22T16:12:34;94978.38;;;9.28;100.00
20003;BME280;10162;41.600;23.806;2023-11-22T16:15:27;94997.34;;;9.43;100.00
20003;BME280;10162;41.600;23.806;2023-11-22T16:17:52;94976.59;;;9.35;100.00
20003;BME280;10162;41.600;23.806;2023-11-22T16:20:19;94976.53;;;9.22;100.00
20003;BME280;10162;41.600;23.806;2023-11-22T16:22:47;94994.50;;;9.17;100.00
20003;BME280;10162;41.600;23.806;2023-11-22T16:28:35;94995.00;;;8.99;100.00
20003;BME280;10162;41.600;23.806;2023-11-22T16:31:02;94964.22;;;8.88;100.00
20003;BME280;10162;41.600;23.806;2023-11-22T16:37:23;95006.78;;;8.95;100.00
20003;BME280;10162;41.600;23.806;2023-11-22T16:39:55;95015.50;;;8.81;100.00
20003;BME280;10162;41.600;23.806;2023-11-22T16:42:39;94998.56;;;8.70;100.00
20003;BME280;10162;41.600;23.806;2023-11-22T16:49:00;95045.53;;;8.98;100.00
20003;BME280;10162;41.600;23.806;2023-11-22T16:51:26;95031.63;;;8.91;100.00
20003;BME280;10162;41.600;23.806;2023-11-22T16:57:48;95042.91;;;8.98;100.00
20003;BME280;10162;41.600;23.806;2023-11-22T17:00:29;95030.63;;;8.92;100.00
20003;BME280;10162;41.600;23.806;2023-11-22T17:02:55;95051.78;;;9.04;100.00
20003;BME280;10162;41.600;23.806;2023-11-22T17:09:23;95039.63;;;8.90;100.00
20003;BME280;10162;41.600;23.806;2023-11-22T17:11:50;62130.53;;;-142.29;100.00
20003;BME280;10162;41.600;23.806;2023-11-22T17:18:10;62130.53;;;-142.29;100.00
20003;BME280;10162;41.600;23.806;2023-11-22T17:20:36;62130.53;;;-142.29;100.00
20003;BME280;10162;41.600;23.806;2023-11-22T17:23:02;62130.53;;;-142.29;100.00
20003;BME280;10162;41.600;23.806;2023-11-22T17:29:22;62130.53;;;-142.29;100.00
20003;BME280;10162;41.600;23.806;2023-11-22T17:31:50;62130.53;;;-142.29;100.00
20003;BME280;10162;41.600;23.806;2023-11-22T17:38:10;62130.53;;;-142.29;100.00